createdAt,value
2023-05-11T00:01:50.314Z,100251.00
2023-05-11T00:04:21.574Z,100242.00
2023-05-11T00:06:49.837Z,100251.00
2023-05-11T00:09:17.907Z,100256.00
2023-05-11T00:11:48.658Z,100241.00
2023-05-11T00:14:19.758Z,100252.00
2023-05-11T00:16:47.960Z,100248.00
2023-05-11T00:19:18.705Z,100242.00
2023-05-11T00:21:55.357Z,100249.00
2023-05-11T00:24:26.277Z,100239.00
2023-05-11T00:26:54.596Z,100250.00
2023-05-11T00:29:29.768Z,100243.00
2023-05-11T00:31:58.010Z,100242.00
2023-05-11T00:34:26.954Z,100241.00
2023-05-11T00:36:59.775Z,100243.00
2023-05-11T00:39:27.774Z,100239.00
2023-05-11T00:41:59.250Z,100238.00
2023-05-11T00:44:42.393Z,100237.00
2023-05-11T00:47:10.496Z,100248.00
2023-05-11T00:49:39.309Z,100237.00
2023-05-11T00:52:10.476Z,100240.00
2023-05-11T00:54:42.809Z,100250.00
2023-05-11T00:57:13.701Z,100240.00
2023-05-11T00:59:45.332Z,100246.00
2023-05-11T01:02:17.797Z,100241.00
2023-05-11T01:04:52.002Z,100244.00
2023-05-11T01:07:55.266Z,100241.00
2023-05-11T01:10:23.432Z,100237.00
2023-05-11T01:12:57.083Z,100238.00
2023-05-11T01:15:34.825Z,100245.00
2023-05-11T01:18:13.392Z,100243.00
2023-05-11T01:20:44.732Z,100244.00
2023-05-11T01:23:27.595Z,100243.00
2023-05-11T01:26:17.649Z,100237.00
2023-05-11T01:29:31.688Z,100251.00
2023-05-11T01:32:00.531Z,100235.00
2023-05-11T01:34:32.020Z,100242.00
2023-05-11T01:37:05.733Z,100243.00
2023-05-11T01:39:39.454Z,100239.00
2023-05-11T01:42:11.947Z,100238.00
2023-05-11T01:44:42.902Z,100244.00
2023-05-11T01:47:12.173Z,100244.00
2023-05-11T01:49:42.678Z,100245.00
2023-05-11T01:52:10.856Z,100244.00
2023-05-11T01:54:41.105Z,100243.00
2023-05-11T01:57:10.503Z,100250.00
2023-05-11T01:59:40.955Z,100248.00
2023-05-11T02:02:09.841Z,100248.00
2023-05-11T02:04:39.623Z,100250.00
2023-05-11T02:07:09.097Z,100245.00
2023-05-11T02:09:38.060Z,100245.00
2023-05-11T02:12:09.165Z,100257.00
2023-05-11T02:14:41.548Z,100257.00
2023-05-11T02:17:10.426Z,100247.00
2023-05-11T02:19:39.838Z,100250.00
2023-05-11T02:22:08.457Z,100255.00
2023-05-11T02:24:36.735Z,100256.00
2023-05-11T02:27:07.643Z,100257.00
2023-05-11T02:29:35.886Z,100261.00
2023-05-11T02:32:17.673Z,100265.00
2023-05-11T02:34:50.746Z,100257.00
2023-05-11T02:37:23.207Z,100259.00
2023-05-11T02:39:59.347Z,100258.00
2023-05-11T02:42:28.406Z,100265.00
2023-05-11T02:45:04.503Z,100260.00
2023-05-11T02:47:45.661Z,100264.00
2023-05-11T02:50:19.864Z,100262.00
2023-05-11T02:52:49.844Z,100264.00
2023-05-11T02:55:18.700Z,100267.00
2023-05-11T02:57:47.153Z,100262.00
2023-05-11T03:00:15.401Z,100266.00
2023-05-11T03:02:43.742Z,100265.00
2023-05-11T03:05:12.150Z,100259.00
2023-05-11T03:07:42.892Z,100267.00
2023-05-11T03:10:11.779Z,100265.00
2023-05-11T03:12:44.011Z,100268.00
2023-05-11T03:15:12.930Z,100261.00
2023-05-11T03:17:44.755Z,100265.00
2023-05-11T03:20:17.156Z,100259.00
2023-05-11T03:22:48.444Z,100256.00
2023-05-11T03:25:19.434Z,100258.00
2023-05-11T03:27:47.878Z,100265.00
2023-05-11T03:30:18.909Z,100263.00
2023-05-11T03:32:50.220Z,100260.00
2023-05-11T03:35:18.338Z,100261.00
2023-05-11T03:37:46.678Z,100258.00
2023-05-11T03:40:18.232Z,100255.00
2023-05-11T03:42:52.197Z,100260.00
2023-05-11T03:45:22.017Z,100254.00
2023-05-11T03:47:51.234Z,100258.00
2023-05-11T03:50:20.114Z,100254.00
2023-05-11T03:52:51.783Z,100241.00
2023-05-11T03:55:19.633Z,100250.00
2023-05-11T03:57:49.077Z,100252.00
2023-05-11T04:00:17.840Z,100254.00
2023-05-11T04:03:12.708Z,100251.00
2023-05-11T04:05:41.732Z,100254.00
2023-05-11T04:08:12.767Z,100250.00
2023-05-11T04:10:40.589Z,100258.00
2023-05-11T04:13:09.085Z,100253.00
2023-05-11T04:15:37.985Z,100249.00
2023-05-11T04:18:06.999Z,100253.00
2023-05-11T04:20:35.812Z,100251.00
2023-05-11T04:23:07.311Z,100258.00
2023-05-11T04:25:39.528Z,100257.00
2023-05-11T04:28:07.629Z,100252.00
2023-05-11T04:30:35.630Z,100255.00
2023-05-11T04:33:06.520Z,100255.00
2023-05-11T04:35:40.695Z,100251.00
2023-05-11T04:38:09.978Z,100252.00
2023-05-11T04:40:38.838Z,100253.00
2023-05-11T04:43:07.195Z,100259.00
2023-05-11T04:45:35.787Z,100257.00
2023-05-11T04:48:03.999Z,100246.00
2023-05-11T04:50:32.394Z,100268.00
2023-05-11T04:53:03.516Z,100266.00
2023-05-11T04:55:31.503Z,100258.00
2023-05-11T04:58:01.403Z,100265.00
2023-05-11T05:00:29.670Z,100260.00
2023-05-11T05:02:57.822Z,100266.00
2023-05-11T05:05:25.752Z,100260.00
2023-05-11T05:07:53.458Z,100257.00
2023-05-11T05:10:22.167Z,100269.00
2023-05-11T05:12:50.070Z,100267.00
2023-05-11T05:15:18.107Z,100268.00
2023-05-11T05:17:46.773Z,100267.00
2023-05-11T05:20:16.511Z,100263.00
2023-05-11T05:22:44.728Z,100263.00
2023-05-11T05:25:12.590Z,100278.00
2023-05-11T05:27:40.698Z,100278.00
2023-05-11T05:30:12.762Z,100273.00
2023-05-11T05:32:40.977Z,100273.00
2023-05-11T05:35:09.314Z,100280.00
2023-05-11T05:37:38.074Z,100287.00
2023-05-11T05:40:07.530Z,100284.00
2023-05-11T05:42:41.282Z,100284.00
2023-05-11T05:45:14.960Z,100281.00
2023-05-11T05:47:44.152Z,100285.00
2023-05-11T05:50:12.486Z,100291.00
2023-05-11T05:52:42.692Z,100279.00
2023-05-11T05:55:11.600Z,100288.00
2023-05-11T05:57:41.089Z,100286.00
2023-05-11T06:00:11.494Z,100294.00
2023-05-11T06:02:42.536Z,100296.00
2023-05-11T06:05:19.512Z,100294.00
2023-05-11T06:07:57.940Z,100293.00
2023-05-11T06:10:33.051Z,100298.00
2023-05-11T06:13:01.532Z,100301.00
2023-05-11T06:15:30.400Z,100301.00
2023-05-11T06:18:04.257Z,100309.00
2023-05-11T06:20:35.573Z,100295.00
2023-05-11T06:23:06.109Z,100300.00
2023-05-11T06:25:38.935Z,100302.00
2023-05-11T06:28:08.325Z,100295.00
2023-05-11T06:30:39.452Z,100288.00
2023-05-11T06:33:09.552Z,100295.00
2023-05-11T06:35:39.161Z,100289.00
2023-05-11T06:38:09.897Z,100293.00
2023-05-11T06:40:39.375Z,100292.00
2023-05-11T06:43:07.326Z,100293.00
2023-05-11T06:45:54.501Z,100296.00
2023-05-11T06:48:23.826Z,100291.00
2023-05-11T06:50:52.077Z,100288.00
2023-05-11T06:53:19.981Z,100288.00
2023-05-11T06:55:48.153Z,100289.00
2023-05-11T06:58:17.381Z,100288.00
2023-05-11T07:00:45.270Z,100291.00
2023-05-11T07:05:41.417Z,100296.00
2023-05-11T07:08:10.565Z,100295.00
2023-05-11T07:10:38.533Z,100295.00
2023-05-11T07:13:06.436Z,100290.00
2023-05-11T07:15:34.508Z,100300.00
2023-05-11T07:18:02.799Z,100289.00
2023-05-11T07:20:30.855Z,100295.00
2023-05-11T07:22:59.638Z,100291.00
2023-05-11T07:25:27.603Z,100288.00
2023-05-11T07:27:56.038Z,100298.00
2023-05-11T07:30:24.755Z,100295.00
2023-05-11T07:32:53.225Z,100293.00
2023-05-11T07:35:22.216Z,100295.00
2023-05-11T07:37:51.817Z,100303.00
2023-05-11T07:40:19.938Z,100299.00
2023-05-11T07:42:48.129Z,100309.00
2023-05-11T07:45:16.652Z,100305.00
2023-05-11T07:47:45.335Z,100300.00
2023-05-11T07:50:13.399Z,100304.00
2023-05-11T07:52:42.000Z,100302.00
2023-05-11T07:55:10.229Z,100304.00
2023-05-11T07:57:38.419Z,100300.00
2023-05-11T08:00:08.203Z,100305.00
2023-05-11T08:02:48.106Z,100307.00
2023-05-11T08:05:17.879Z,100299.00
2023-05-11T08:07:46.917Z,100307.00
2023-05-11T08:10:15.282Z,100318.00
2023-05-11T08:12:43.465Z,100306.00
2023-05-11T08:15:11.952Z,100312.00
2023-05-11T08:17:39.860Z,100308.00
2023-05-11T08:20:08.940Z,100300.00
2023-05-11T08:22:37.529Z,100313.00
2023-05-11T08:25:05.860Z,100301.00
2023-05-11T08:27:34.158Z,100304.00
2023-05-11T08:30:02.150Z,100305.00
2023-05-11T08:32:30.794Z,100309.00
2023-05-11T08:34:59.053Z,100314.00
2023-05-11T08:37:26.996Z,100309.00
2023-05-11T08:39:54.984Z,100307.00
2023-05-11T08:42:25.343Z,100312.00
2023-05-11T08:44:59.565Z,100307.00
2023-05-11T08:47:27.796Z,100317.00
2023-05-11T08:49:55.935Z,100312.00
2023-05-11T08:52:23.823Z,100314.00
2023-05-11T08:54:53.146Z,100315.00
2023-05-11T08:57:21.432Z,100314.00
2023-05-11T08:59:49.808Z,100314.00
2023-05-11T09:02:19.372Z,100314.00
2023-05-11T09:04:48.863Z,100319.00
2023-05-11T09:07:18.476Z,100318.00
2023-05-11T09:09:48.096Z,100309.00
2023-05-11T09:12:17.476Z,100310.00
2023-05-11T09:14:47.392Z,100311.00
2023-05-11T09:17:15.657Z,100310.00
2023-05-11T09:20:09.535Z,100310.00
2023-05-11T09:22:49.725Z,100310.00
2023-05-11T09:25:18.502Z,100311.00
2023-05-11T09:27:47.468Z,100309.00
2023-05-11T09:32:57.127Z,100304.00
2023-05-11T09:35:31.813Z,100306.00
2023-05-11T09:38:05.615Z,100310.00
2023-05-11T09:40:38.729Z,100304.00
2023-05-11T09:43:18.780Z,100302.00
2023-05-11T09:45:48.619Z,100307.00
2023-05-11T09:48:27.197Z,100309.00
2023-05-11T09:51:06.494Z,100307.00
2023-05-11T09:53:46.368Z,100303.00
2023-05-11T09:56:15.997Z,100301.00
2023-05-11T09:58:58.083Z,100298.00
2023-05-11T10:01:33.864Z,100297.00
2023-05-11T10:04:21.194Z,100300.00
2023-05-11T10:06:50.605Z,100297.00
2023-05-11T10:09:22.927Z,100294.00
2023-05-11T10:11:51.693Z,100291.00
2023-05-11T10:14:20.315Z,100292.00
2023-05-11T10:16:48.966Z,100293.00
2023-05-11T10:19:17.332Z,100288.00
2023-05-11T10:21:45.589Z,100283.00
2023-05-11T10:24:14.260Z,100283.00
2023-05-11T10:26:42.825Z,100286.00
2023-05-11T10:29:11.759Z,100289.00
2023-05-11T10:31:39.832Z,100286.00
2023-05-11T10:34:08.149Z,100281.00
2023-05-11T10:36:36.333Z,100278.00
2023-05-11T10:39:04.330Z,100285.00
2023-05-11T10:42:19.886Z,100279.00
2023-05-11T10:45:09.962Z,100282.00
2023-05-11T10:48:06.565Z,100285.00
2023-05-11T10:50:48.947Z,100282.00
2023-05-11T10:53:29.336Z,100283.00
2023-05-11T10:56:15.509Z,100288.00
2023-05-11T10:58:55.506Z,100277.00
2023-05-11T11:01:39.773Z,100279.00
2023-05-11T11:04:09.669Z,100279.00
2023-05-11T11:06:42.331Z,100278.00
2023-05-11T11:09:13.736Z,100272.00
2023-05-11T11:11:46.186Z,100274.00
2023-05-11T11:14:16.031Z,100274.00
2023-05-11T11:17:16.681Z,100275.00
2023-05-11T11:19:44.930Z,100277.00
2023-05-11T11:22:35.006Z,100277.00
2023-05-11T11:25:06.437Z,100271.00
2023-05-11T11:27:43.808Z,100268.00
2023-05-11T11:30:24.693Z,100270.00
2023-05-11T11:33:11.119Z,100275.00
2023-05-11T11:35:42.580Z,100277.00
2023-05-11T11:38:12.762Z,100271.00
2023-05-11T11:40:52.657Z,100280.00
2023-05-11T11:43:26.392Z,100278.00
2023-05-11T11:46:04.215Z,100279.00
2023-05-11T11:48:37.160Z,100285.00
2023-05-11T11:51:10.727Z,100283.00
2023-05-11T11:53:41.128Z,100286.00
2023-05-11T11:56:15.210Z,100280.00
2023-05-11T11:58:46.413Z,100284.00
2023-05-11T12:01:14.907Z,100277.00
2023-05-11T12:03:44.387Z,100282.00
2023-05-11T12:06:13.558Z,100287.00
2023-05-11T12:08:44.895Z,100283.00
2023-05-11T12:11:17.879Z,100275.00
2023-05-11T12:13:46.353Z,100281.00
2023-05-11T12:16:19.182Z,100280.00
2023-05-11T12:18:56.046Z,100282.00
2023-05-11T12:21:32.000Z,100282.00
2023-05-11T12:24:05.620Z,100288.00
2023-05-11T12:26:35.933Z,100285.00
2023-05-11T12:29:18.922Z,100284.00
2023-05-11T12:31:50.226Z,100282.00
2023-05-11T12:34:25.345Z,100278.00
2023-05-11T12:36:54.674Z,100283.00
2023-05-11T12:39:24.675Z,100283.00
2023-05-11T12:41:55.083Z,100279.00
2023-05-11T12:44:27.241Z,100274.00
2023-05-11T12:46:56.437Z,100276.00
2023-05-11T12:49:26.821Z,100271.00
2023-05-11T12:52:09.388Z,100267.00
2023-05-11T12:54:43.618Z,100269.00
2023-05-11T12:57:29.256Z,100272.00
2023-05-11T13:00:08.242Z,100269.00
2023-05-11T13:02:36.516Z,100269.00
2023-05-11T13:05:14.679Z,100271.00
2023-05-11T13:07:44.660Z,100266.00
2023-05-11T13:10:15.756Z,100270.00
2023-05-11T13:12:51.962Z,100270.00
2023-05-11T13:15:22.062Z,100266.00
2023-05-11T13:18:01.599Z,100268.00
2023-05-11T13:20:34.513Z,100258.00
2023-05-11T13:23:12.210Z,100263.00
2023-05-11T13:26:00.051Z,100260.00
2023-05-11T13:28:30.783Z,100263.00
2023-05-11T13:31:03.418Z,100249.00
2023-05-11T13:33:32.229Z,100251.00
2023-05-11T13:36:03.657Z,100259.00
2023-05-11T13:38:31.624Z,100258.00
2023-05-11T13:40:59.714Z,100255.00
2023-05-11T13:43:27.658Z,100253.00
2023-05-11T13:45:56.134Z,100257.00
2023-05-11T13:48:24.105Z,100254.00
2023-05-11T13:50:54.390Z,100254.00
2023-05-11T13:53:22.568Z,100256.00
2023-05-11T13:55:52.352Z,100255.00
2023-05-11T13:58:20.834Z,100247.00
2023-05-11T14:01:06.433Z,100246.00
2023-05-11T14:03:36.221Z,100245.00
2023-05-11T14:06:04.899Z,100244.00
2023-05-11T14:08:33.015Z,100246.00
2023-05-11T14:11:00.961Z,100252.00
2023-05-11T14:13:28.849Z,100252.00
2023-05-11T14:15:57.077Z,100243.00
2023-05-11T14:18:26.215Z,100239.00
2023-05-11T14:20:57.204Z,100241.00
2023-05-11T14:23:25.083Z,100243.00
2023-05-11T14:25:53.464Z,100248.00
2023-05-11T14:28:21.451Z,100247.00
2023-05-11T14:30:49.746Z,100239.00
2023-05-11T14:33:17.716Z,100244.00
2023-05-11T14:35:45.835Z,100235.00
2023-05-11T14:38:13.894Z,100231.00
2023-05-11T14:40:42.378Z,100233.00
2023-05-11T14:43:10.282Z,100223.00
2023-05-11T14:45:38.176Z,100223.00
2023-05-11T14:48:06.660Z,100227.00
2023-05-11T14:50:35.116Z,100225.00
2023-05-11T14:53:03.202Z,100223.00
2023-05-11T14:55:31.733Z,100228.00
2023-05-11T14:58:04.542Z,100224.00
2023-05-11T15:00:33.113Z,100229.00
2023-05-11T15:03:01.262Z,100229.00
2023-05-11T15:05:29.189Z,100232.00
2023-05-11T15:07:58.534Z,100223.00
2023-05-11T15:10:27.833Z,100227.00
2023-05-11T15:12:55.916Z,100218.00
2023-05-11T15:15:24.149Z,100225.00
2023-05-11T15:17:52.119Z,100228.00
2023-05-11T15:20:20.487Z,100240.00
2023-05-11T15:22:48.503Z,100251.00
2023-05-11T15:25:16.868Z,100267.00
2023-05-11T15:27:45.153Z,100273.00
2023-05-11T15:30:14.009Z,100272.00
2023-05-11T15:32:42.425Z,100267.00
2023-05-11T15:35:10.529Z,100264.00
2023-05-11T15:37:38.627Z,100271.00
2023-05-11T15:40:10.906Z,100267.00
2023-05-11T15:42:39.389Z,100269.00
2023-05-11T15:45:07.968Z,100269.00
2023-05-11T15:47:35.916Z,100281.00
2023-05-11T15:50:04.401Z,100267.00
2023-05-11T15:52:32.660Z,100255.00
2023-05-11T15:55:00.620Z,100257.00
2023-05-11T15:57:28.716Z,100259.00
2023-05-11T15:59:56.689Z,100250.00
2023-05-11T16:02:24.750Z,100255.00
2023-05-11T16:04:55.521Z,100252.00
2023-05-11T16:07:23.695Z,100250.00
2023-05-11T16:09:51.667Z,100240.00
2023-05-11T16:12:19.526Z,100255.00
2023-05-11T16:14:47.379Z,100252.00
2023-05-11T16:17:15.552Z,100255.00
2023-05-11T16:19:43.856Z,100273.00
2023-05-11T16:22:12.328Z,100269.00
2023-05-11T16:24:40.457Z,100269.00
2023-05-11T16:27:08.394Z,100255.00
2023-05-11T16:29:36.495Z,100254.00
2023-05-11T16:32:04.657Z,100259.00
2023-05-11T16:34:32.991Z,100260.00
2023-05-11T16:37:00.935Z,100261.00
2023-05-11T16:39:29.321Z,100266.00
2023-05-11T16:41:59.598Z,100262.00
2023-05-11T16:44:28.043Z,100255.00
2023-05-11T16:46:55.892Z,100241.00
2023-05-11T16:49:24.437Z,100252.00
2023-05-11T16:51:53.334Z,100241.00
2023-05-11T16:54:21.489Z,100254.00
2023-05-11T16:56:49.496Z,100252.00
2023-05-11T16:59:17.709Z,100256.00
2023-05-11T17:01:46.655Z,100255.00
2023-05-11T17:04:15.450Z,100250.00
2023-05-11T17:06:46.627Z,100258.00
2023-05-11T17:09:14.834Z,100257.00
2023-05-11T17:11:43.147Z,100257.00
2023-05-11T17:14:11.381Z,100266.00
2023-05-11T17:16:39.388Z,100264.00
2023-05-11T17:19:08.132Z,100272.00
2023-05-11T17:21:36.091Z,100265.00
2023-05-11T17:24:04.647Z,100269.00
2023-05-11T17:26:47.296Z,100271.00
2023-05-11T17:29:17.382Z,100285.00
2023-05-11T17:31:50.649Z,100297.00
2023-05-11T17:34:20.006Z,100295.00
2023-05-11T17:36:50.150Z,100296.00
2023-05-11T17:39:19.557Z,100298.00
2023-05-11T17:41:48.490Z,100308.00
2023-05-11T17:44:16.851Z,100317.00
2023-05-11T17:46:45.325Z,100317.00
2023-05-11T17:49:14.759Z,100322.00
2023-05-11T17:51:43.585Z,100313.00
2023-05-11T17:54:12.086Z,100308.00
2023-05-11T17:56:40.557Z,100306.00
2023-05-11T17:59:09.406Z,100313.00
2023-05-11T18:01:37.773Z,100309.00
2023-05-11T18:04:06.104Z,100307.00
2023-05-11T18:06:34.911Z,100309.00
2023-05-11T18:09:05.297Z,100296.00
2023-05-11T18:11:33.790Z,100298.00
2023-05-11T18:14:02.125Z,100301.00
2023-05-11T18:16:30.765Z,100297.00
2023-05-11T18:19:00.568Z,100304.00
2023-05-11T18:21:29.275Z,100297.00
2023-05-11T18:23:57.448Z,100305.00
2023-05-11T18:26:26.583Z,100301.00
2023-05-11T18:28:55.317Z,100308.00
2023-05-11T18:31:23.517Z,100332.00
2023-05-11T18:33:51.556Z,100323.00
2023-05-11T18:36:19.669Z,100348.00
2023-05-11T18:38:49.230Z,100360.00
2023-05-11T18:41:17.578Z,100360.00
2023-05-11T18:43:45.750Z,100362.00
2023-05-11T18:46:13.879Z,100366.00
2023-05-11T18:48:42.912Z,100363.00
2023-05-11T18:51:11.336Z,100363.00
2023-05-11T18:53:42.563Z,100358.00
2023-05-11T18:56:11.743Z,100370.00
2023-05-11T18:58:39.815Z,100372.00
2023-05-11T19:01:07.881Z,100375.00
2023-05-11T19:03:38.190Z,100373.00
2023-05-11T19:06:07.850Z,100386.00
2023-05-11T19:08:35.844Z,100380.00
2023-05-11T19:11:09.792Z,100388.00
2023-05-11T19:13:38.003Z,100388.00
2023-05-11T19:16:06.086Z,100393.00
2023-05-11T19:18:36.010Z,100391.00
2023-05-11T19:21:05.496Z,100390.00
2023-05-11T19:23:34.311Z,100393.00
2023-05-11T19:26:02.496Z,100403.00
2023-05-11T19:28:30.843Z,100397.00
2023-05-11T19:31:06.246Z,100398.00
2023-05-11T19:33:34.429Z,100401.00
2023-05-11T19:36:02.756Z,100401.00
2023-05-11T19:38:30.869Z,100407.00
2023-05-11T19:40:59.571Z,100398.00
2023-05-11T19:43:27.718Z,100418.00
2023-05-11T19:45:56.071Z,100415.00
2023-05-11T19:48:27.436Z,100408.00
2023-05-11T19:50:55.599Z,100410.00
2023-05-11T19:53:24.081Z,100417.00
2023-05-11T19:55:55.076Z,100422.00
2023-05-11T19:58:23.991Z,100427.00
2023-05-11T20:00:52.296Z,100420.00
2023-05-11T20:03:20.577Z,100422.00
2023-05-11T20:05:49.081Z,100420.00
2023-05-11T20:08:17.674Z,100430.00
2023-05-11T20:10:46.338Z,100433.00
2023-05-11T20:13:14.623Z,100431.00
2023-05-11T20:15:43.251Z,100439.00
2023-05-11T20:18:12.002Z,100439.00
2023-05-11T20:20:39.957Z,100442.00
2023-05-11T20:23:10.928Z,100436.00
2023-05-11T20:25:44.166Z,100438.00
2023-05-11T20:28:13.056Z,100432.00
2023-05-11T20:30:40.914Z,100437.00
2023-05-11T20:35:40.139Z,100435.00
2023-05-11T20:38:08.236Z,100447.00
2023-05-11T20:40:36.846Z,100446.00
2023-05-11T20:43:05.173Z,100437.00
2023-05-11T20:45:36.261Z,100435.00
2023-05-11T20:48:07.244Z,100433.00
2023-05-11T20:50:35.334Z,100432.00
2023-05-11T20:53:08.487Z,100432.00
2023-05-11T20:55:36.741Z,100439.00
2023-05-11T20:58:05.305Z,100441.00
2023-05-11T21:00:34.058Z,100442.00
2023-05-11T21:03:02.750Z,100443.00
2023-05-11T21:05:31.239Z,100442.00
2023-05-11T21:08:00.318Z,100440.00
2023-05-11T21:10:53.587Z,100439.00
2023-05-11T21:13:21.926Z,100439.00
2023-05-11T21:15:50.084Z,100444.00
2023-05-11T21:18:18.198Z,100446.00
2023-05-11T21:20:46.369Z,100452.00
2023-05-11T21:23:14.554Z,100452.00
2023-05-11T21:25:42.629Z,100458.00
2023-05-11T21:28:10.932Z,100462.00
2023-05-11T21:30:38.996Z,100461.00
2023-05-11T21:33:07.181Z,100462.00
2023-05-11T21:35:35.627Z,100459.00
2023-05-11T21:38:04.387Z,100460.00
2023-05-11T21:40:32.778Z,100460.00
2023-05-11T21:43:00.718Z,100453.00
2023-05-11T21:45:28.913Z,100457.00
2023-05-11T21:47:59.002Z,100458.00
2023-05-11T21:50:27.388Z,100450.00
2023-05-11T21:52:55.506Z,100458.00
2023-05-11T21:55:23.852Z,100457.00
2023-05-11T21:57:53.109Z,100460.00
2023-05-11T22:00:22.746Z,100458.00
2023-05-11T22:02:51.339Z,100471.00
2023-05-11T22:05:22.239Z,100465.00
2023-05-11T22:07:57.696Z,100468.00
2023-05-11T22:10:31.380Z,100477.00
2023-05-11T22:13:00.512Z,100477.00
2023-05-11T22:15:30.176Z,100472.00
2023-05-11T22:17:58.570Z,100471.00
2023-05-11T22:20:26.509Z,100475.00
2023-05-11T22:22:54.654Z,100476.00
2023-05-11T22:25:23.094Z,100473.00
2023-05-11T22:27:50.969Z,100487.00
2023-05-11T22:30:20.410Z,100486.00
2023-05-11T22:32:48.517Z,100483.00
2023-05-11T22:35:18.721Z,100491.00
2023-05-11T22:37:47.460Z,100487.00
2023-05-11T22:40:16.036Z,100489.00
2023-05-11T22:42:44.050Z,100486.00
2023-05-11T22:45:15.138Z,100486.00
2023-05-11T22:47:43.169Z,100482.00
2023-05-11T22:50:12.322Z,100476.00
2023-05-11T22:52:40.209Z,100475.00
2023-05-11T22:55:08.990Z,100483.00
2023-05-11T22:57:40.249Z,100487.00
2023-05-11T23:00:11.074Z,100486.00
2023-05-11T23:02:39.264Z,100487.00
2023-05-11T23:05:07.887Z,100485.00
2023-05-11T23:07:36.248Z,100485.00
2023-05-11T23:10:04.515Z,100490.00
2023-05-11T23:12:32.648Z,100484.00
2023-05-11T23:15:00.518Z,100483.00
2023-05-11T23:17:28.523Z,100477.00
2023-05-11T23:19:56.748Z,100485.00
2023-05-11T23:22:24.692Z,100489.00
2023-05-11T23:24:55.662Z,100473.00
2023-05-11T23:27:23.790Z,100473.00
2023-05-11T23:29:52.156Z,100486.00
2023-05-11T23:32:20.070Z,100479.00
2023-05-11T23:34:48.227Z,100481.00
2023-05-11T23:37:17.386Z,100483.00
2023-05-11T23:39:45.437Z,100483.00
2023-05-11T23:42:13.758Z,100483.00
2023-05-11T23:44:41.821Z,100480.00
2023-05-11T23:47:09.960Z,100476.00
2023-05-11T23:49:38.682Z,100474.00
2023-05-11T23:52:06.862Z,100473.00
2023-05-11T23:54:35.111Z,100464.00
2023-05-11T23:57:03.022Z,100470.00
2023-05-11T23:59:31.057Z,100471.00
